sensor_id;sensor_type;location;lat;lon;timestamp;P1;durP1;ratioP1;P2;durP2;ratioP2
3259;SDS011;22469;48.150;14.004;2023-01-19T00:01:31;11.50;;;10.40;;
3259;SDS011;22469;48.150;14.004;2023-01-19T00:03:58;12.37;;;11.07;;
3259;SDS011;22469;48.150;14.004;2023-01-19T00:06:26;11.77;;;10.77;;
3259;SDS011;22469;48.150;14.004;2023-01-19T00:08:53;10.97;;;9.87;;
3259;SDS011;22469;48.150;14.004;2023-01-19T00:11:20;11.00;;;9.90;;
3259;SDS011;22469;48.150;14.004;2023-01-19T00:13:47;11.47;;;10.47;;
3259;SDS011;22469;48.150;14.004;2023-01-19T00:16:17;12.17;;;10.90;;
3259;SDS011;22469;48.150;14.004;2023-01-19T00:18:49;11.00;;;10.00;;
3259;SDS011;22469;48.150;14.004;2023-01-19T00:21:17;12.27;;;10.47;;
3259;SDS011;22469;48.150;14.004;2023-01-19T00:23:47;12.93;;;11.00;;
3259;SDS011;22469;48.150;14.004;2023-01-19T00:26:17;12.60;;;11.00;;
3259;SDS011;22469;48.150;14.004;2023-01-19T00:28:47;13.37;;;12.00;;
3259;SDS011;22469;48.150;14.004;2023-01-19T00:31:15;12.07;;;10.70;;
3259;SDS011;22469;48.150;14.004;2023-01-19T00:33:42;13.70;;;10.93;;
3259;SDS011;22469;48.150;14.004;2023-01-19T00:36:09;12.93;;;11.50;;
3259;SDS011;22469;48.150;14.004;2023-01-19T00:38:36;15.07;;;11.67;;
3259;SDS011;22469;48.150;14.004;2023-01-19T00:41:04;12.00;;;10.77;;
3259;SDS011;22469;48.150;14.004;2023-01-19T00:43:32;10.17;;;9.17;;
3259;SDS011;22469;48.150;14.004;2023-01-19T00:45:59;11.73;;;10.53;;
3259;SDS011;22469;48.150;14.004;2023-01-19T00:48:26;9.83;;;8.83;;
3259;SDS011;22469;48.150;14.004;2023-01-19T00:50:53;9.50;;;8.67;;
3259;SDS011;22469;48.150;14.004;2023-01-19T00:53:20;11.20;;;9.30;;
3259;SDS011;22469;48.150;14.004;2023-01-19T00:55:47;9.30;;;8.27;;
3259;SDS011;22469;48.150;14.004;2023-01-19T00:58:14;10.30;;;9.30;;
3259;SDS011;22469;48.150;14.004;2023-01-19T01:00:41;10.63;;;9.30;;
3259;SDS011;22469;48.150;14.004;2023-01-19T01:03:10;11.10;;;9.30;;
3259;SDS011;22469;48.150;14.004;2023-01-19T01:05:41;10.83;;;9.80;;
3259;SDS011;22469;48.150;14.004;2023-01-19T01:08:09;11.87;;;9.30;;
3259;SDS011;22469;48.150;14.004;2023-01-19T01:10:36;11.47;;;10.33;;
3259;SDS011;22469;48.150;14.004;2023-01-19T01:13:03;13.40;;;11.27;;
3259;SDS011;22469;48.150;14.004;2023-01-19T01:15:50;12.20;;;11.00;;
3259;SDS011;22469;48.150;14.004;2023-01-19T01:18:20;13.57;;;12.07;;
3259;SDS011;22469;48.150;14.004;2023-01-19T01:20:48;14.07;;;12.57;;
3259;SDS011;22469;48.150;14.004;2023-01-19T01:23:15;12.63;;;11.33;;
3259;SDS011;22469;48.150;14.004;2023-01-19T01:25:48;13.17;;;9.90;;
3259;SDS011;22469;48.150;14.004;2023-01-19T01:28:15;13.77;;;12.20;;
3259;SDS011;22469;48.150;14.004;2023-01-19T01:30:42;14.33;;;11.70;;
3259;SDS011;22469;48.150;14.004;2023-01-19T01:33:09;13.47;;;12.10;;
3259;SDS011;22469;48.150;14.004;2023-01-19T01:35:39;13.53;;;12.10;;
3259;SDS011;22469;48.150;14.004;2023-01-19T01:38:06;13.87;;;12.10;;
3259;SDS011;22469;48.150;14.004;2023-01-19T01:40:37;13.17;;;11.77;;
3259;SDS011;22469;48.150;14.004;2023-01-19T01:43:12;14.07;;;12.60;;
3259;SDS011;22469;48.150;14.004;2023-01-19T01:45:41;17.40;;;12.33;;
3259;SDS011;22469;48.150;14.004;2023-01-19T01:48:23;14.87;;;12.57;;
3259;SDS011;22469;48.150;14.004;2023-01-19T01:50:57;13.00;;;11.50;;
3259;SDS011;22469;48.150;14.004;2023-01-19T01:56:38;16.00;;;14.30;;
3259;SDS011;22469;48.150;14.004;2023-01-19T01:59:15;18.00;;;14.47;;
3259;SDS011;22469;48.150;14.004;2023-01-19T02:01:56;13.83;;;12.30;;
3259;SDS011;22469;48.150;14.004;2023-01-19T02:04:51;17.70;;;14.30;;
3259;SDS011;22469;48.150;14.004;2023-01-19T02:07:29;17.67;;;14.23;;
3259;SDS011;22469;48.150;14.004;2023-01-19T02:10:33;19.93;;;15.73;;
3259;SDS011;22469;48.150;14.004;2023-01-19T02:13:20;15.00;;;12.63;;
3259;SDS011;22469;48.150;14.004;2023-01-19T02:15:49;17.30;;;14.13;;
3259;SDS011;22469;48.150;14.004;2023-01-19T02:18:22;21.63;;;14.47;;
3259;SDS011;22469;48.150;14.004;2023-01-19T02:20:57;20.40;;;15.30;;
3259;SDS011;22469;48.150;14.004;2023-01-19T02:26:12;20.37;;;16.00;;
3259;SDS011;22469;48.150;14.004;2023-01-19T02:28:47;15.87;;;14.27;;
3259;SDS011;22469;48.150;14.004;2023-01-19T02:31:23;18.23;;;15.40;;
3259;SDS011;22469;48.150;14.004;2023-01-19T02:33:51;18.90;;;14.47;;
3259;SDS011;22469;48.150;14.004;2023-01-19T02:36:23;18.93;;;15.77;;
3259;SDS011;22469;48.150;14.004;2023-01-19T02:38:56;17.53;;;15.67;;
3259;SDS011;22469;48.150;14.004;2023-01-19T02:41:27;22.37;;;16.10;;
3259;SDS011;22469;48.150;14.004;2023-01-19T02:44:02;18.10;;;16.20;;
3259;SDS011;22469;48.150;14.004;2023-01-19T02:46:30;20.23;;;14.87;;
3259;SDS011;22469;48.150;14.004;2023-01-19T02:48:59;21.03;;;14.70;;
3259;SDS011;22469;48.150;14.004;2023-01-19T02:51:26;20.23;;;15.30;;
3259;SDS011;22469;48.150;14.004;2023-01-19T03:19:01;19.93;;;16.07;;
3259;SDS011;22469;48.150;14.004;2023-01-19T03:21:36;20.33;;;16.30;;
3259;SDS011;22469;48.150;14.004;2023-01-19T03:24:08;19.97;;;15.90;;
3259;SDS011;22469;48.150;14.004;2023-01-19T03:26:40;20.80;;;15.80;;
3259;SDS011;22469;48.150;14.004;2023-01-19T03:29:11;23.33;;;18.00;;
3259;SDS011;22469;48.150;14.004;2023-01-19T03:31:41;21.53;;;16.43;;
3259;SDS011;22469;48.150;14.004;2023-01-19T03:34:12;21.70;;;16.37;;
3259;SDS011;22469;48.150;14.004;2023-01-19T03:36:45;14.83;;;11.70;;
3259;SDS011;22469;48.150;14.004;2023-01-19T03:39:22;20.70;;;16.10;;
3259;SDS011;22469;48.150;14.004;2023-01-19T03:41:52;21.23;;;16.40;;
3259;SDS011;22469;48.150;14.004;2023-01-19T03:44:24;24.07;;;17.50;;
3259;SDS011;22469;48.150;14.004;2023-01-19T03:46:55;22.17;;;17.57;;
3259;SDS011;22469;48.150;14.004;2023-01-19T03:49:24;20.03;;;16.20;;
3259;SDS011;22469;48.150;14.004;2023-01-19T03:51:55;23.23;;;17.07;;
3259;SDS011;22469;48.150;14.004;2023-01-19T03:54:24;21.10;;;15.80;;
3259;SDS011;22469;48.150;14.004;2023-01-19T03:56:52;24.10;;;17.17;;
3259;SDS011;22469;48.150;14.004;2023-01-19T03:59:19;20.90;;;16.20;;
3259;SDS011;22469;48.150;14.004;2023-01-19T04:01:47;19.80;;;15.60;;
3259;SDS011;22469;48.150;14.004;2023-01-19T04:04:15;22.80;;;17.57;;
3259;SDS011;22469;48.150;14.004;2023-01-19T04:06:42;17.20;;;13.23;;
3259;SDS011;22469;48.150;14.004;2023-01-19T04:09:09;20.63;;;16.77;;
3259;SDS011;22469;48.150;14.004;2023-01-19T04:11:36;22.57;;;17.00;;
3259;SDS011;22469;48.150;14.004;2023-01-19T04:14:03;23.37;;;15.80;;
3259;SDS011;22469;48.150;14.004;2023-01-19T04:16:30;18.27;;;13.77;;
3259;SDS011;22469;48.150;14.004;2023-01-19T04:18:58;20.40;;;16.00;;
3259;SDS011;22469;48.150;14.004;2023-01-19T04:21:24;20.97;;;17.57;;
3259;SDS011;22469;48.150;14.004;2023-01-19T04:23:52;19.20;;;15.70;;
3259;SDS011;22469;48.150;14.004;2023-01-19T04:26:19;20.10;;;15.90;;
3259;SDS011;22469;48.150;14.004;2023-01-19T04:28:47;20.83;;;16.00;;
3259;SDS011;22469;48.150;14.004;2023-01-19T04:31:13;20.57;;;15.90;;
3259;SDS011;22469;48.150;14.004;2023-01-19T04:33:41;20.60;;;15.77;;
3259;SDS011;22469;48.150;14.004;2023-01-19T04:36:08;21.70;;;16.50;;
3259;SDS011;22469;48.150;14.004;2023-01-19T04:38:35;21.80;;;17.57;;
3259;SDS011;22469;48.150;14.004;2023-01-19T04:41:02;20.60;;;15.60;;
3259;SDS011;22469;48.150;14.004;2023-01-19T04:43:29;23.20;;;17.67;;
3259;SDS011;22469;48.150;14.004;2023-01-19T04:45:57;23.50;;;15.50;;
3259;SDS011;22469;48.150;14.004;2023-01-19T04:48:24;24.43;;;17.70;;
3259;SDS011;22469;48.150;14.004;2023-01-19T04:50:51;22.17;;;16.40;;
3259;SDS011;22469;48.150;14.004;2023-01-19T04:53:19;21.00;;;16.73;;
3259;SDS011;22469;48.150;14.004;2023-01-19T04:55:46;18.73;;;16.03;;
3259;SDS011;22469;48.150;14.004;2023-01-19T04:58:13;26.73;;;18.70;;
3259;SDS011;22469;48.150;14.004;2023-01-19T05:00:41;24.10;;;17.10;;
3259;SDS011;22469;48.150;14.004;2023-01-19T05:03:09;18.83;;;13.53;;
3259;SDS011;22469;48.150;14.004;2023-01-19T05:05:36;26.67;;;18.00;;
3259;SDS011;22469;48.150;14.004;2023-01-19T05:08:03;22.00;;;16.30;;
3259;SDS011;22469;48.150;14.004;2023-01-19T05:10:31;22.13;;;18.37;;
3259;SDS011;22469;48.150;14.004;2023-01-19T05:12:58;24.30;;;17.27;;
3259;SDS011;22469;48.150;14.004;2023-01-19T05:15:25;23.67;;;18.20;;
3259;SDS011;22469;48.150;14.004;2023-01-19T05:17:52;21.53;;;17.27;;
3259;SDS011;22469;48.150;14.004;2023-01-19T05:20:19;26.23;;;19.37;;
3259;SDS011;22469;48.150;14.004;2023-01-19T05:22:50;25.97;;;17.10;;
3259;SDS011;22469;48.150;14.004;2023-01-19T05:25:18;23.30;;;17.80;;
3259;SDS011;22469;48.150;14.004;2023-01-19T05:27:46;25.90;;;18.70;;
3259;SDS011;22469;48.150;14.004;2023-01-19T05:30:13;23.70;;;17.50;;
3259;SDS011;22469;48.150;14.004;2023-01-19T05:32:41;23.40;;;18.10;;
3259;SDS011;22469;48.150;14.004;2023-01-19T05:35:08;31.17;;;19.47;;
3259;SDS011;22469;48.150;14.004;2023-01-19T05:37:35;24.30;;;17.97;;
3259;SDS011;22469;48.150;14.004;2023-01-19T05:40:03;22.13;;;16.87;;
3259;SDS011;22469;48.150;14.004;2023-01-19T05:42:31;24.77;;;18.97;;
3259;SDS011;22469;48.150;14.004;2023-01-19T05:44:58;26.93;;;18.90;;
3259;SDS011;22469;48.150;14.004;2023-01-19T05:47:27;28.73;;;19.07;;
3259;SDS011;22469;48.150;14.004;2023-01-19T05:49:56;23.90;;;17.27;;
3259;SDS011;22469;48.150;14.004;2023-01-19T05:52:23;20.27;;;16.47;;
3259;SDS011;22469;48.150;14.004;2023-01-19T05:54:50;30.67;;;22.67;;
3259;SDS011;22469;48.150;14.004;2023-01-19T05:57:17;23.73;;;19.00;;
3259;SDS011;22469;48.150;14.004;2023-01-19T05:59:44;28.57;;;20.90;;
3259;SDS011;22469;48.150;14.004;2023-01-19T06:02:11;21.97;;;18.10;;
3259;SDS011;22469;48.150;14.004;2023-01-19T06:04:39;21.30;;;19.00;;
3259;SDS011;22469;48.150;14.004;2023-01-19T06:07:06;25.13;;;18.53;;
3259;SDS011;22469;48.150;14.004;2023-01-19T06:09:33;22.70;;;16.97;;
3259;SDS011;22469;48.150;14.004;2023-01-19T06:12:01;22.17;;;17.43;;
3259;SDS011;22469;48.150;14.004;2023-01-19T06:14:28;21.60;;;15.50;;
3259;SDS011;22469;48.150;14.004;2023-01-19T06:16:54;22.97;;;18.10;;
3259;SDS011;22469;48.150;14.004;2023-01-19T06:19:22;24.87;;;18.77;;
3259;SDS011;22469;48.150;14.004;2023-01-19T06:21:49;22.57;;;18.67;;
3259;SDS011;22469;48.150;14.004;2023-01-19T06:24:17;21.47;;;16.83;;
3259;SDS011;22469;48.150;14.004;2023-01-19T06:26:45;20.07;;;16.60;;
3259;SDS011;22469;48.150;14.004;2023-01-19T06:29:12;21.50;;;16.27;;
3259;SDS011;22469;48.150;14.004;2023-01-19T06:31:40;31.57;;;23.73;;
3259;SDS011;22469;48.150;14.004;2023-01-19T06:34:09;28.00;;;20.93;;
3259;SDS011;22469;48.150;14.004;2023-01-19T06:36:36;27.03;;;20.03;;
3259;SDS011;22469;48.150;14.004;2023-01-19T06:39:04;29.60;;;20.53;;
3259;SDS011;22469;48.150;14.004;2023-01-19T06:41:32;30.63;;;24.10;;
3259;SDS011;22469;48.150;14.004;2023-01-19T06:43:59;31.50;;;23.03;;
3259;SDS011;22469;48.150;14.004;2023-01-19T06:46:27;29.57;;;23.53;;
3259;SDS011;22469;48.150;14.004;2023-01-19T06:48:55;35.90;;;25.33;;
3259;SDS011;22469;48.150;14.004;2023-01-19T06:51:22;23.23;;;18.70;;
3259;SDS011;22469;48.150;14.004;2023-01-19T06:53:50;18.90;;;15.30;;
3259;SDS011;22469;48.150;14.004;2023-01-19T06:56:17;24.13;;;17.80;;
3259;SDS011;22469;48.150;14.004;2023-01-19T06:58:46;24.70;;;16.97;;
3259;SDS011;22469;48.150;14.004;2023-01-19T07:01:14;23.37;;;18.97;;
3259;SDS011;22469;48.150;14.004;2023-01-19T07:03:41;22.87;;;16.33;;
3259;SDS011;22469;48.150;14.004;2023-01-19T07:06:10;23.00;;;16.67;;
3259;SDS011;22469;48.150;14.004;2023-01-19T07:08:37;27.10;;;17.30;;
3259;SDS011;22469;48.150;14.004;2023-01-19T07:11:06;22.97;;;17.50;;
3259;SDS011;22469;48.150;14.004;2023-01-19T07:13:55;19.53;;;15.57;;
3259;SDS011;22469;48.150;14.004;2023-01-19T07:16:22;23.83;;;15.13;;
3259;SDS011;22469;48.150;14.004;2023-01-19T07:18:49;22.60;;;15.87;;
3259;SDS011;22469;48.150;14.004;2023-01-19T07:21:17;17.00;;;14.10;;
3259;SDS011;22469;48.150;14.004;2023-01-19T07:23:47;21.60;;;14.50;;
3259;SDS011;22469;48.150;14.004;2023-01-19T07:26:15;19.03;;;13.83;;
3259;SDS011;22469;48.150;14.004;2023-01-19T07:28:47;21.33;;;15.33;;
3259;SDS011;22469;48.150;14.004;2023-01-19T07:31:15;18.40;;;13.50;;
3259;SDS011;22469;48.150;14.004;2023-01-19T07:33:43;17.50;;;12.40;;
3259;SDS011;22469;48.150;14.004;2023-01-19T07:36:11;17.50;;;12.27;;
3259;SDS011;22469;48.150;14.004;2023-01-19T07:38:38;14.87;;;11.67;;
3259;SDS011;22469;48.150;14.004;2023-01-19T07:41:07;20.43;;;14.27;;
3259;SDS011;22469;48.150;14.004;2023-01-19T07:43:36;13.93;;;11.73;;
3259;SDS011;22469;48.150;14.004;2023-01-19T07:46:04;16.50;;;14.00;;
3259;SDS011;22469;48.150;14.004;2023-01-19T07:48:33;17.07;;;13.20;;
3259;SDS011;22469;48.150;14.004;2023-01-19T07:51:01;12.70;;;11.00;;
3259;SDS011;22469;48.150;14.004;2023-01-19T07:53:31;15.53;;;11.63;;
3259;SDS011;22469;48.150;14.004;2023-01-19T07:55:58;14.90;;;11.13;;
3259;SDS011;22469;48.150;14.004;2023-01-19T07:58:25;16.37;;;11.90;;
3259;SDS011;22469;48.150;14.004;2023-01-19T08:00:53;21.73;;;13.17;;
3259;SDS011;22469;48.150;14.004;2023-01-19T08:03:20;20.73;;;13.07;;
3259;SDS011;22469;48.150;14.004;2023-01-19T08:05:51;15.80;;;11.43;;
3259;SDS011;22469;48.150;14.004;2023-01-19T08:08:19;16.90;;;12.50;;
3259;SDS011;22469;48.150;14.004;2023-01-19T08:10:48;17.80;;;12.60;;
3259;SDS011;22469;48.150;14.004;2023-01-19T08:13:16;18.40;;;15.73;;
3259;SDS011;22469;48.150;14.004;2023-01-19T08:15:44;17.43;;;13.90;;
3259;SDS011;22469;48.150;14.004;2023-01-19T08:18:13;18.77;;;13.33;;
3259;SDS011;22469;48.150;14.004;2023-01-19T08:20:41;24.03;;;16.00;;
3259;SDS011;22469;48.150;14.004;2023-01-19T08:23:08;21.20;;;14.53;;
3259;SDS011;22469;48.150;14.004;2023-01-19T08:25:37;17.00;;;13.60;;
3259;SDS011;22469;48.150;14.004;2023-01-19T08:28:10;21.03;;;13.30;;
3259;SDS011;22469;48.150;14.004;2023-01-19T08:30:40;25.00;;;14.23;;
3259;SDS011;22469;48.150;14.004;2023-01-19T08:33:12;20.50;;;15.20;;
3259;SDS011;22469;48.150;14.004;2023-01-19T08:35:40;20.37;;;12.50;;
3259;SDS011;22469;48.150;14.004;2023-01-19T08:38:09;16.53;;;12.07;;
3259;SDS011;22469;48.150;14.004;2023-01-19T08:40:37;19.33;;;12.57;;
3259;SDS011;22469;48.150;14.004;2023-01-19T08:43:07;16.47;;;11.90;;
3259;SDS011;22469;48.150;14.004;2023-01-19T08:45:39;16.23;;;12.33;;
3259;SDS011;22469;48.150;14.004;2023-01-19T08:48:17;22.33;;;15.20;;
3259;SDS011;22469;48.150;14.004;2023-01-19T08:50:50;20.73;;;15.27;;
3259;SDS011;22469;48.150;14.004;2023-01-19T08:53:18;17.30;;;13.43;;
3259;SDS011;22469;48.150;14.004;2023-01-19T08:55:46;15.90;;;12.00;;
3259;SDS011;22469;48.150;14.004;2023-01-19T08:58:13;19.97;;;12.00;;
3259;SDS011;22469;48.150;14.004;2023-01-19T09:00:41;18.60;;;14.97;;
3259;SDS011;22469;48.150;14.004;2023-01-19T09:03:10;14.57;;;11.23;;
3259;SDS011;22469;48.150;14.004;2023-01-19T09:05:39;17.10;;;10.90;;
3259;SDS011;22469;48.150;14.004;2023-01-19T09:08:07;17.73;;;11.17;;
3259;SDS011;22469;48.150;14.004;2023-01-19T09:10:42;17.27;;;12.10;;
3259;SDS011;22469;48.150;14.004;2023-01-19T09:13:16;16.43;;;12.53;;
3259;SDS011;22469;48.150;14.004;2023-01-19T09:15:45;18.23;;;14.43;;
3259;SDS011;22469;48.150;14.004;2023-01-19T09:18:14;19.60;;;13.93;;
3259;SDS011;22469;48.150;14.004;2023-01-19T09:20:45;20.37;;;16.33;;
3259;SDS011;22469;48.150;14.004;2023-01-19T09:23:31;21.53;;;16.90;;
3259;SDS011;22469;48.150;14.004;2023-01-19T09:26:00;22.87;;;17.60;;
3259;SDS011;22469;48.150;14.004;2023-01-19T09:28:29;26.70;;;18.23;;
3259;SDS011;22469;48.150;14.004;2023-01-19T09:30:57;23.03;;;18.83;;
3259;SDS011;22469;48.150;14.004;2023-01-19T09:33:24;20.17;;;16.80;;
3259;SDS011;22469;48.150;14.004;2023-01-19T09:35:51;26.00;;;17.87;;
3259;SDS011;22469;48.150;14.004;2023-01-19T09:38:18;24.40;;;17.40;;
3259;SDS011;22469;48.150;14.004;2023-01-19T09:40:47;23.20;;;17.60;;
3259;SDS011;22469;48.150;14.004;2023-01-19T09:43:20;22.07;;;17.30;;
3259;SDS011;22469;48.150;14.004;2023-01-19T09:48:54;25.40;;;18.60;;
3259;SDS011;22469;48.150;14.004;2023-01-19T09:51:27;19.60;;;15.80;;
3259;SDS011;22469;48.150;14.004;2023-01-19T09:56:47;17.50;;;14.90;;
3259;SDS011;22469;48.150;14.004;2023-01-19T09:59:25;21.53;;;13.83;;
3259;SDS011;22469;48.150;14.004;2023-01-19T10:08:05;16.13;;;14.53;;
3259;SDS011;22469;48.150;14.004;2023-01-19T10:10:44;20.90;;;15.30;;
3259;SDS011;22469;48.150;14.004;2023-01-19T10:21:59;21.13;;;14.80;;
3259;SDS011;22469;48.150;14.004;2023-01-19T10:24:42;22.30;;;17.90;;
3259;SDS011;22469;48.150;14.004;2023-01-19T10:27:14;18.03;;;14.87;;
3259;SDS011;22469;48.150;14.004;2023-01-19T10:29:43;19.27;;;15.40;;
3259;SDS011;22469;48.150;14.004;2023-01-19T10:34:49;18.17;;;14.67;;
3259;SDS011;22469;48.150;14.004;2023-01-19T10:42:48;17.70;;;14.40;;
3259;SDS011;22469;48.150;14.004;2023-01-19T10:45:15;18.90;;;14.27;;
3259;SDS011;22469;48.150;14.004;2023-01-19T10:47:52;16.77;;;14.97;;
3259;SDS011;22469;48.150;14.004;2023-01-19T10:50:23;21.47;;;15.83;;
3259;SDS011;22469;48.150;14.004;2023-01-19T10:52:55;22.10;;;17.50;;
3259;SDS011;22469;48.150;14.004;2023-01-19T10:55:27;19.93;;;14.80;;
3259;SDS011;22469;48.150;14.004;2023-01-19T10:57:58;19.67;;;14.80;;
3259;SDS011;22469;48.150;14.004;2023-01-19T11:00:29;19.13;;;16.27;;
3259;SDS011;22469;48.150;14.004;2023-01-19T11:05:50;22.27;;;18.20;;
3259;SDS011;22469;48.150;14.004;2023-01-19T11:08:28;17.47;;;13.20;;
3259;SDS011;22469;48.150;14.004;2023-01-19T11:11:03;20.33;;;15.03;;
3259;SDS011;22469;48.150;14.004;2023-01-19T11:13:34;14.67;;;11.80;;
3259;SDS011;22469;48.150;14.004;2023-01-19T11:16:05;16.97;;;13.40;;
3259;SDS011;22469;48.150;14.004;2023-01-19T11:18:50;17.13;;;12.17;;
3259;SDS011;22469;48.150;14.004;2023-01-19T11:21:26;17.90;;;14.70;;
3259;SDS011;22469;48.150;14.004;2023-01-19T11:23:57;13.80;;;12.10;;
3259;SDS011;22469;48.150;14.004;2023-01-19T11:26:28;15.50;;;11.43;;
3259;SDS011;22469;48.150;14.004;2023-01-19T11:29:18;14.67;;;11.73;;
3259;SDS011;22469;48.150;14.004;2023-01-19T11:36:00;27.80;;;13.43;;
3259;SDS011;22469;48.150;14.004;2023-01-19T11:38:31;16.63;;;12.80;;
3259;SDS011;22469;48.150;14.004;2023-01-19T11:41:06;19.00;;;11.83;;
3259;SDS011;22469;48.150;14.004;2023-01-19T11:43:47;14.80;;;11.07;;
3259;SDS011;22469;48.150;14.004;2023-01-19T11:46:19;12.50;;;10.50;;
3259;SDS011;22469;48.150;14.004;2023-01-19T11:51:28;11.60;;;10.30;;
3259;SDS011;22469;48.150;14.004;2023-01-19T11:54:05;14.67;;;11.43;;
3259;SDS011;22469;48.150;14.004;2023-01-19T11:56:46;14.57;;;9.70;;
3259;SDS011;22469;48.150;14.004;2023-01-19T11:59:20;15.50;;;11.13;;
3259;SDS011;22469;48.150;14.004;2023-01-19T12:01:54;15.60;;;10.30;;
3259;SDS011;22469;48.150;14.004;2023-01-19T12:04:26;14.80;;;11.10;;
3259;SDS011;22469;48.150;14.004;2023-01-19T12:07:02;14.40;;;11.30;;
3259;SDS011;22469;48.150;14.004;2023-01-19T12:09:47;12.83;;;11.23;;
3259;SDS011;22469;48.150;14.004;2023-01-19T12:12:24;16.93;;;12.77;;
3259;SDS011;22469;48.150;14.004;2023-01-19T12:15:01;18.13;;;12.33;;
3259;SDS011;22469;48.150;14.004;2023-01-19T12:17:38;13.27;;;10.37;;
3259;SDS011;22469;48.150;14.004;2023-01-19T12:28:42;15.43;;;11.10;;
3259;SDS011;22469;48.150;14.004;2023-01-19T12:31:18;13.57;;;12.00;;
3259;SDS011;22469;48.150;14.004;2023-01-19T12:33:47;15.57;;;11.37;;
3259;SDS011;22469;48.150;14.004;2023-01-19T12:38:49;13.33;;;11.07;;
3259;SDS011;22469;48.150;14.004;2023-01-19T12:44:23;12.03;;;10.80;;
3259;SDS011;22469;48.150;14.004;2023-01-19T12:49:47;13.63;;;11.53;;
3259;SDS011;22469;48.150;14.004;2023-01-19T12:52:31;16.80;;;12.30;;
3259;SDS011;22469;48.150;14.004;2023-01-19T12:57:45;13.03;;;11.43;;
3259;SDS011;22469;48.150;14.004;2023-01-19T13:00:44;13.97;;;10.17;;
3259;SDS011;22469;48.150;14.004;2023-01-19T13:05:49;10.93;;;9.93;;
3259;SDS011;22469;48.150;14.004;2023-01-19T13:08:20;11.87;;;10.70;;
3259;SDS011;22469;48.150;14.004;2023-01-19T13:13:33;15.00;;;9.83;;
3259;SDS011;22469;48.150;14.004;2023-01-19T13:21:32;14.13;;;12.70;;
3259;SDS011;22469;48.150;14.004;2023-01-19T13:24:02;13.87;;;12.03;;
3259;SDS011;22469;48.150;14.004;2023-01-19T13:26:39;14.30;;;11.73;;
3259;SDS011;22469;48.150;14.004;2023-01-19T13:32:05;14.83;;;11.10;;
3259;SDS011;22469;48.150;14.004;2023-01-19T13:34:45;11.37;;;10.20;;
3259;SDS011;22469;48.150;14.004;2023-01-19T13:37:19;12.63;;;10.30;;
3259;SDS011;22469;48.150;14.004;2023-01-19T13:39:50;16.30;;;10.53;;
3259;SDS011;22469;48.150;14.004;2023-01-19T13:42:35;13.43;;;11.27;;
3259;SDS011;22469;48.150;14.004;2023-01-19T13:47:47;14.13;;;11.47;;
3259;SDS011;22469;48.150;14.004;2023-01-19T13:50:19;11.70;;;10.00;;
3259;SDS011;22469;48.150;14.004;2023-01-19T13:52:56;12.40;;;10.80;;
3259;SDS011;22469;48.150;14.004;2023-01-19T13:55:26;14.17;;;11.00;;
3259;SDS011;22469;48.150;14.004;2023-01-19T13:57:55;11.20;;;10.00;;
3259;SDS011;22469;48.150;14.004;2023-01-19T14:00:24;12.10;;;10.77;;
3259;SDS011;22469;48.150;14.004;2023-01-19T14:05:40;13.40;;;11.27;;
3259;SDS011;22469;48.150;14.004;2023-01-19T14:15:58;12.57;;;11.20;;
3259;SDS011;22469;48.150;14.004;2023-01-19T14:18:31;11.27;;;9.40;;
3259;SDS011;22469;48.150;14.004;2023-01-19T14:21:07;15.93;;;11.20;;
3259;SDS011;22469;48.150;14.004;2023-01-19T14:26:42;18.00;;;11.40;;
3259;SDS011;22469;48.150;14.004;2023-01-19T14:29:15;20.00;;;12.30;;
3259;SDS011;22469;48.150;14.004;2023-01-19T14:42:33;17.40;;;13.40;;
3259;SDS011;22469;48.150;14.004;2023-01-19T14:45:04;16.27;;;12.53;;
3259;SDS011;22469;48.150;14.004;2023-01-19T14:50:43;16.20;;;9.20;;
3259;SDS011;22469;48.150;14.004;2023-01-19T14:53:28;11.13;;;9.83;;
3259;SDS011;22469;48.150;14.004;2023-01-19T14:56:03;10.83;;;9.70;;
3259;SDS011;22469;48.150;14.004;2023-01-19T14:58:32;12.60;;;9.10;;
3259;SDS011;22469;48.150;14.004;2023-01-19T15:01:01;12.27;;;10.80;;
3259;SDS011;22469;48.150;14.004;2023-01-19T15:03:29;11.10;;;9.60;;
3259;SDS011;22469;48.150;14.004;2023-01-19T15:06:14;16.03;;;9.50;;
3259;SDS011;22469;48.150;14.004;2023-01-19T15:08:45;14.63;;;9.87;;
3259;SDS011;22469;48.150;14.004;2023-01-19T15:13:55;12.30;;;9.43;;
3259;SDS011;22469;48.150;14.004;2023-01-19T15:16:24;13.80;;;10.20;;
3259;SDS011;22469;48.150;14.004;2023-01-19T15:18:54;13.93;;;9.80;;
3259;SDS011;22469;48.150;14.004;2023-01-19T15:21:22;15.70;;;10.10;;
3259;SDS011;22469;48.150;14.004;2023-01-19T15:23:52;35.47;;;20.37;;
3259;SDS011;22469;48.150;14.004;2023-01-19T15:26:21;18.40;;;12.40;;
3259;SDS011;22469;48.150;14.004;2023-01-19T15:28:50;12.63;;;11.07;;
3259;SDS011;22469;48.150;14.004;2023-01-19T15:31:19;16.90;;;14.30;;
3259;SDS011;22469;48.150;14.004;2023-01-19T15:33:49;15.00;;;12.63;;
3259;SDS011;22469;48.150;14.004;2023-01-19T15:36:17;13.77;;;12.37;;
3259;SDS011;22469;48.150;14.004;2023-01-19T15:38:46;18.57;;;13.73;;
3259;SDS011;22469;48.150;14.004;2023-01-19T15:41:23;16.03;;;13.23;;
3259;SDS011;22469;48.150;14.004;2023-01-19T15:43:55;15.47;;;13.87;;
3259;SDS011;22469;48.150;14.004;2023-01-19T15:46:23;15.43;;;13.20;;
3259;SDS011;22469;48.150;14.004;2023-01-19T15:48:51;21.30;;;13.63;;
3259;SDS011;22469;48.150;14.004;2023-01-19T15:51:20;21.63;;;14.50;;
3259;SDS011;22469;48.150;14.004;2023-01-19T15:53:53;18.57;;;14.83;;
3259;SDS011;22469;48.150;14.004;2023-01-19T15:56:25;18.40;;;14.00;;
3259;SDS011;22469;48.150;14.004;2023-01-19T15:58:55;16.20;;;13.10;;
3259;SDS011;22469;48.150;14.004;2023-01-19T16:01:27;20.70;;;14.47;;
3259;SDS011;22469;48.150;14.004;2023-01-19T16:03:58;14.33;;;12.50;;
3259;SDS011;22469;48.150;14.004;2023-01-19T16:06:29;15.87;;;13.67;;
3259;SDS011;22469;48.150;14.004;2023-01-19T16:08:57;19.30;;;14.13;;
3259;SDS011;22469;48.150;14.004;2023-01-19T16:11:28;17.30;;;14.80;;
3259;SDS011;22469;48.150;14.004;2023-01-19T16:14:00;24.37;;;15.13;;
3259;SDS011;22469;48.150;14.004;2023-01-19T16:16:28;17.20;;;14.97;;
3259;SDS011;22469;48.150;14.004;2023-01-19T16:18:55;20.03;;;14.20;;
3259;SDS011;22469;48.150;14.004;2023-01-19T16:21:23;17.37;;;14.13;;
3259;SDS011;22469;48.150;14.004;2023-01-19T16:23:50;22.50;;;16.63;;
3259;SDS011;22469;48.150;14.004;2023-01-19T16:29:02;16.23;;;13.47;;
3259;SDS011;22469;48.150;14.004;2023-01-19T16:31:36;18.23;;;14.70;;
3259;SDS011;22469;48.150;14.004;2023-01-19T16:34:08;18.67;;;14.37;;
3259;SDS011;22469;48.150;14.004;2023-01-19T16:36:36;18.70;;;14.60;;
3259;SDS011;22469;48.150;14.004;2023-01-19T16:39:07;18.30;;;13.60;;
3259;SDS011;22469;48.150;14.004;2023-01-19T16:41:39;19.40;;;14.40;;
3259;SDS011;22469;48.150;14.004;2023-01-19T16:44:08;18.40;;;15.00;;
3259;SDS011;22469;48.150;14.004;2023-01-19T16:46:42;20.90;;;16.67;;
3259;SDS011;22469;48.150;14.004;2023-01-19T16:49:12;19.83;;;14.50;;
3259;SDS011;22469;48.150;14.004;2023-01-19T16:51:48;20.70;;;15.30;;
3259;SDS011;22469;48.150;14.004;2023-01-19T16:54:18;21.70;;;16.87;;
3259;SDS011;22469;48.150;14.004;2023-01-19T16:56:48;17.50;;;15.10;;
3259;SDS011;22469;48.150;14.004;2023-01-19T16:59:16;18.97;;;15.77;;
3259;SDS011;22469;48.150;14.004;2023-01-19T17:01:44;20.80;;;15.07;;